Time;durP1;ratioP1;P1;durP2;ratioP2;P2;SDS_P1;SDS_P2;PMS_P1;PMS_P2;Temp;Humidity;BMP_temperature;BMP_pressure;BME280_temperature;BME280_humidity;BME280_pressure;Samples;Min_cycle;Max_cycle;Signal;HPM_P1;HPM_P2
2022/06/28 00:00:22;;;;;;;15.65;13.30;;;12.70;99.90;;;;;;5075419;28;20079;-47
2022/06/28 00:02:48;;;;;;;17.02;14.25;;;12.80;99.90;;;;;;5074731;28;20121;-45
2022/06/28 00:05:16;;;;;;;19.25;14.35;;;12.80;99.90;;;;;;5074603;28;20039;-49
2022/06/28 00:07:44;;;;;;;22.23;15.00;;;12.80;99.90;;;;;;5075013;28;20498;-45
2022/06/28 00:10:12;;;;;;;17.08;15.10;;;12.60;99.90;;;;;;5074217;28;20036;-47
2022/06/28 00:12:39;;;;;;;18.45;14.65;;;13.90;99.90;;;;;;5074514;28;20044;-48
2022/06/28 00:17:52;;;;;;;22.25;14.40;;;12.80;99.90;;;;;;5075190;28;20181;-45
2022/06/28 00:20:18;;;;;;;19.42;13.82;;;12.60;99.90;;;;;;5075047;28;20048;-45
2022/06/28 00:22:44;;;;;;;18.35;14.32;;;12.70;99.90;;;;;;5073643;28;20500;-46
2022/06/28 00:25:10;;;;;;;18.67;14.20;;;12.90;99.90;;;;;;5074345;28;20051;-45
2022/06/28 00:27:36;;;;;;;18.15;15.02;;;13.30;99.90;;;;;;5074898;28;20098;-46
2022/06/28 00:30:03;;;;;;;17.10;14.65;;;12.70;99.90;;;;;;5074439;28;20599;-43
2022/06/28 00:32:29;;;;;;;18.65;15.55;;;12.60;99.90;;;;;;5074773;28;20207;-44
2022/06/28 00:34:54;;;;;;;19.35;15.40;;;12.40;99.90;;;;;;5076114;28;20613;-46
2022/06/28 00:37:20;;;;;;;21.92;15.15;;;12.40;99.90;;;;;;5074624;28;20503;-45
2022/06/28 00:39:46;;;;;;;19.08;16.40;;;12.50;99.90;;;;;;5073457;28;20097;-46
2022/06/28 00:42:12;;;;;;;19.60;17.10;;;12.50;99.90;;;;;;5074715;28;20036;-45
2022/06/28 00:44:38;;;;;;;21.27;17.10;;;12.30;99.90;;;;;;5074167;28;20774;-49
2022/06/28 00:47:07;;;;;;;20.48;16.60;;;12.40;99.90;;;;;;5075848;28;20051;-47
2022/06/28 00:49:33;;;;;;;22.48;17.77;;;12.60;99.90;;;;;;5075490;28;20059;-45
2022/06/28 00:52:02;;;;;;;18.75;16.13;;;12.30;99.90;;;;;;5075688;28;20098;-48
2022/06/28 00:54:29;;;;;;;20.95;16.55;;;12.30;99.90;;;;;;5074655;28;20040;-46
2022/06/28 00:56:55;;;;;;;19.80;16.40;;;13.30;99.90;;;;;;5075399;28;20039;-44
2022/06/28 00:59:21;;;;;;;18.55;16.55;;;12.40;99.90;;;;;;5074631;28;20048;-44
2022/06/28 01:01:47;;;;;;;19.27;16.88;;;12.20;99.90;;;;;;5074061;28;20067;-44
2022/06/28 01:04:12;;;;;;;18.17;16.27;;;13.40;99.90;;;;;;5073938;28;20070;-49
2022/06/28 01:06:40;;;;;;;20.00;16.02;;;12.30;99.90;;;;;;5073842;28;20040;-48
2022/06/28 01:09:10;;;;;;;17.48;15.48;;;14.10;99.90;;;;;;5074331;28;20039;-45
2022/06/28 01:11:35;;;;;;;16.48;14.68;;;12.30;99.90;;;;;;5074546;28;20064;-44
2022/06/28 01:14:05;;;;;;;22.30;15.55;;;12.30;99.90;;;;;;5074340;28;20127;-46
2022/06/28 01:16:30;;;;;;;18.00;14.98;;;12.00;99.90;;;;;;5073449;28;20074;-44
2022/06/28 01:18:56;;;;;;;21.23;15.40;;;12.30;99.90;;;;;;5072212;28;20040;-47
2022/06/28 01:21:27;;;;;;;20.20;14.55;;;12.90;99.90;;;;;;5073742;28;20416;-45
2022/06/28 01:23:54;;;;;;;18.27;13.70;;;14.30;99.90;;;;;;5074724;28;20867;-49
2022/06/28 01:26:20;;;;;;;17.08;13.82;;;12.50;99.90;;;;;;5073792;28;20091;-47
2022/06/28 01:28:50;;;;;;;19.50;13.75;;;13.20;99.90;;;;;;5074700;28;20124;-47
2022/06/28 01:31:18;;;;;;;18.73;14.50;;;12.20;99.90;;;;;;5073491;28;20094;-48
2022/06/28 01:33:44;;;;;;;18.55;13.07;;;12.20;99.90;;;;;;5073930;28;20047;-45
2022/06/28 01:36:11;;;;;;;16.40;12.82;;;12.20;99.90;;;;;;5072912;28;20039;-45
2022/06/28 01:38:39;;;;;;;15.70;11.68;;;12.20;99.90;;;;;;5073045;28;20040;-47
2022/06/28 01:41:05;;;;;;;19.60;12.82;;;12.30;99.90;;;;;;5073121;28;20050;-47
2022/06/28 01:43:32;;;;;;;14.40;11.30;;;12.10;99.90;;;;;;5074860;28;20434;-43
2022/06/28 01:45:59;;;;;;;17.33;11.77;;;12.10;99.90;;;;;;5075154;28;20101;-47
2022/06/28 01:48:25;;;;;;;14.35;11.80;;;12.90;99.90;;;;;;5073103;28;20080;-46
2022/06/28 01:50:52;;;;;;;15.45;12.60;;;12.70;99.90;;;;;;5074461;28;20595;-48
2022/06/28 01:53:20;;;;;;;15.43;11.63;;;12.00;99.90;;;;;;5074339;28;20094;-48
2022/06/28 01:55:46;;;;;;;13.52;10.95;;;14.00;99.90;;;;;;5072837;28;20060;-47
2022/06/28 01:58:12;;;;;;;16.02;11.40;;;12.60;99.90;;;;;;5073564;28;20100;-47
2022/06/28 02:00:38;;;;;;;12.57;10.77;;;12.60;99.90;;;;;;5074266;28;20047;-44
2022/06/28 02:03:04;;;;;;;14.88;11.05;;;12.00;99.90;;;;;;5073506;28;20044;-45
2022/06/28 02:05:32;;;;;;;18.02;11.52;;;12.00;99.90;;;;;;5073167;28;20044;-46
2022/06/28 02:07:58;;;;;;;15.30;11.77;;;11.80;99.90;;;;;;5073086;28;20040;-47
2022/06/28 02:10:24;;;;;;;18.70;12.25;;;11.80;99.90;;;;;;5072077;28;20039;-47
2022/06/28 02:12:51;;;;;;;15.25;12.05;;;11.90;99.90;;;;;;5072642;28;20287;-49
2022/06/28 02:15:16;;;;;;;15.80;12.02;;;11.80;99.90;;;;;;5073854;28;20080;-48
2022/06/28 02:17:43;;;;;;;17.15;12.48;;;11.70;99.90;;;;;;5073365;28;20044;-43
2022/06/28 02:20:12;;;;;;;16.70;11.50;;;11.70;99.90;;;;;;5073086;28;20048;-45
2022/06/28 02:22:38;;;;;;;17.75;12.45;;;11.70;99.90;;;;;;5071829;28;20097;-47
2022/06/28 02:25:04;;;;;;;15.73;12.05;;;11.60;99.90;;;;;;5071439;28;20048;-47
2022/06/28 02:27:30;;;;;;;15.60;12.77;;;11.70;99.90;;;;;;5072755;28;20128;-48
2022/06/28 02:29:56;;;;;;;20.88;13.02;;;11.60;99.90;;;;;;5072055;28;20036;-48
2022/06/28 02:32:21;;;;;;;18.95;11.98;;;12.40;99.90;;;;;;5072032;28;20043;-47
2022/06/28 02:40:22;;;;;;;14.30;12.80;;;11.60;99.90;;;;;;5073083;28;20162;-47
2022/06/28 02:42:53;;;;;;;19.50;12.82;;;11.40;99.90;;;;;;5073129;28;20044;-48
2022/06/28 02:45:22;;;;;;;17.73;13.02;;;11.50;99.90;;;;;;5072987;28;20044;-47
2022/06/28 02:47:48;;;;;;;18.42;13.40;;;13.50;99.90;;;;;;5072629;28;20051;-47
2022/06/28 02:50:14;;;;;;;17.75;12.68;;;12.90;99.90;;;;;;5072571;28;20089;-45
2022/06/28 02:52:40;;;;;;;19.58;13.05;;;11.30;99.90;;;;;;5071397;28;20078;-46
2022/06/28 02:55:06;;;;;;;15.30;12.45;;;11.40;99.90;;;;;;5073314;28;20070;-46
2022/06/28 02:57:33;;;;;;;17.38;13.02;;;11.30;99.90;;;;;;5072788;28;20064;-49
2022/06/28 03:00:02;;;;;;;17.75;12.80;;;12.80;99.90;;;;;;5073433;28;20078;-45
2022/06/28 03:02:28;;;;;;;18.63;13.27;;;13.20;99.90;;;;;;5071693;28;20389;-48
2022/06/28 03:04:53;;;;;;;17.65;13.65;;;11.30;99.90;;;;;;5072505;28;20047;-47
2022/06/28 03:07:19;;;;;;;18.73;13.45;;;11.30;99.90;;;;;;5073822;28;20044;-48
2022/06/28 03:09:44;;;;;;;19.83;13.50;;;11.20;99.90;;;;;;5073601;28;20047;-48
2022/06/28 03:12:10;;;;;;;17.55;12.70;;;12.40;99.90;;;;;;5072187;28;20035;-49
2022/06/28 03:14:38;;;;;;;21.10;14.15;;;11.30;99.90;;;;;;5072169;28;20078;-47
2022/06/28 03:17:04;;;;;;;17.23;13.13;;;11.40;99.90;;;;;;5073472;28;20032;-46
2022/06/28 03:19:29;;;;;;;20.10;13.70;;;9.30;99.90;;;;;;5072232;28;20047;-49
2022/06/28 03:21:55;;;;;;;21.63;14.10;;;12.10;99.90;;;;;;5072205;28;20055;-49
2022/06/28 03:24:21;;;;;;;14.70;12.55;;;11.30;99.90;;;;;;5071162;28;20723;-47
2022/06/28 03:26:46;;;;;;;18.67;13.73;;;13.10;99.90;;;;;;5072370;28;20425;-49
2022/06/28 03:29:14;;;;;;;21.13;13.57;;;11.30;99.90;;;;;;5071955;28;20039;-48
2022/06/28 03:31:40;;;;;;;17.52;13.80;;;12.30;99.90;;;;;;5070398;28;20032;-46
2022/06/28 03:34:05;;;;;;;18.55;13.70;;;11.20;99.90;;;;;;5069379;28;20059;-45
2022/06/28 03:36:31;;;;;;;19.65;14.45;;;11.80;99.90;;;;;;5072043;28;20040;-45
2022/06/28 03:38:57;;;;;;;17.70;12.90;;;13.50;99.90;;;;;;5071957;28;20040;-49
2022/06/28 03:41:23;;;;;;;19.75;14.10;;;11.30;99.90;;;;;;5070293;28;20028;-49
2022/06/28 03:43:50;;;;;;;21.25;13.63;;;12.00;99.90;;;;;;5071532;28;20051;-49
2022/06/28 03:46:16;;;;;;;17.80;14.13;;;12.00;99.90;;;;;;5072498;28;20066;-46
2022/06/28 03:48:42;;;;;;;20.75;13.88;;;11.30;99.90;;;;;;5071264;28;20117;-48
2022/06/28 03:51:08;;;;;;;18.27;13.90;;;11.50;99.90;;;;;;5070808;28;20702;-44
2022/06/28 03:53:36;;;;;;;15.77;13.38;;;11.30;99.90;;;;;;5071288;28;20056;-48
2022/06/28 03:56:02;;;;;;;20.70;13.05;;;13.40;99.90;;;;;;5070842;28;20048;-45
2022/06/28 03:58:28;;;;;;;16.75;12.43;;;11.00;99.90;;;;;;5069765;28;20047;-47
2022/06/28 04:00:54;;;;;;;15.02;13.00;;;11.40;99.90;;;;;;5070753;28;20059;-48
2022/06/28 04:03:19;;;;;;;16.70;12.32;;;11.30;99.90;;;;;;5069077;28;20306;-47
2022/06/28 04:05:45;;;;;;;18.77;13.07;;;13.70;99.90;;;;;;5072162;28;20044;-47
2022/06/28 04:08:11;;;;;;;17.48;12.35;;;11.60;99.90;;;;;;5070881;28;20381;-47
2022/06/28 04:10:37;;;;;;;17.23;13.43;;;11.30;99.90;;;;;;5070994;28;20042;-47
2022/06/28 04:13:03;;;;;;;17.50;12.05;;;12.10;99.90;;;;;;5075237;28;20028;-45
2022/06/28 04:15:29;;;;;;;18.77;12.55;;;11.70;99.90;;;;;;5076441;28;20044;-45
2022/06/28 04:17:56;;;;;;;15.40;11.45;;;11.30;99.90;;;;;;5076644;28;20035;-44
2022/06/28 04:20:22;;;;;;;20.02;12.60;;;12.00;99.90;;;;;;5074867;28;20848;-47
2022/06/28 04:22:48;;;;;;;15.10;10.98;;;12.90;99.90;;;;;;5075760;28;20119;-46
2022/06/28 04:25:14;;;;;;;16.63;10.85;;;11.60;99.90;;;;;;5074251;28;21533;-43
2022/06/28 04:27:40;;;;;;;16.95;10.27;;;11.60;99.90;;;;;;5075554;28;20036;-45
2022/06/28 04:30:07;;;;;;;19.60;12.07;;;12.00;99.90;;;;;;5074262;28;20040;-44
2022/06/28 04:32:32;;;;;;;15.15;9.70;;;11.80;99.90;;;;;;5073296;28;20040;-48
2022/06/28 04:34:58;;;;;;;16.33;9.13;;;12.30;99.90;;;;;;5074925;28;20607;-46
2022/06/28 04:37:24;;;;;;;14.75;10.00;;;12.10;99.90;;;;;;5073376;28;20329;-44
2022/06/28 04:39:51;;;;;;;12.93;9.73;;;11.10;99.90;;;;;;5075082;28;20096;-44
2022/06/28 04:42:18;;;;;;;15.00;10.13;;;12.50;99.90;;;;;;5074936;28;20441;-44
2022/06/28 04:44:44;;;;;;;11.93;8.82;;;12.60;99.90;;;;;;5074708;28;20458;-45
2022/06/28 04:47:10;;;;;;;10.98;9.13;;;12.70;99.90;;;;;;5073663;28;20134;-47
2022/06/28 04:49:36;;;;;;;12.02;8.55;;;12.50;99.90;;;;;;5074766;28;20070;-46
2022/06/28 04:52:02;;;;;;;15.00;8.00;;;12.60;99.90;;;;;;5074200;28;20047;-43
2022/06/28 04:54:29;;;;;;;14.80;8.57;;;12.80;99.90;;;;;;5072966;28;20249;-46
2022/06/28 04:56:57;;;;;;;15.65;7.88;;;14.30;99.90;;;;;;5073582;28;20051;-44
2022/06/28 04:59:23;;;;;;;11.05;7.63;;;12.80;99.90;;;;;;5072421;28;20039;-45
2022/06/28 05:01:48;;;;;;;13.00;7.50;;;13.50;99.90;;;;;;5073865;28;20044;-44
2022/06/28 05:04:14;;;;;;;17.13;7.50;;;14.00;99.90;;;;;;5072436;28;20035;-49
2022/06/28 05:06:40;;;;;;;12.05;6.93;;;13.60;99.90;;;;;;5073797;28;20078;-45
2022/06/28 05:09:06;;;;;;;10.38;7.03;;;13.30;99.90;;;;;;5073452;28;20074;-45
2022/06/28 05:11:32;;;;;;;12.52;6.90;;;13.40;99.90;;;;;;5072404;28;20206;-44
2022/06/28 05:13:59;;;;;;;16.02;7.18;;;13.30;99.90;;;;;;5073473;28;20392;-48
2022/06/28 05:16:24;;;;;;;11.02;6.63;;;14.40;99.90;;;;;;5075150;28;20040;-45
2022/06/28 05:18:52;;;;;;;11.52;6.60;;;14.20;99.90;;;;;;5074408;28;20800;-47
2022/06/28 05:21:18;;;;;;;12.32;6.40;;;13.70;99.90;;;;;;5075274;28;20044;-49
2022/06/28 05:23:45;;;;;;;12.65;6.80;;;13.70;99.90;;;;;;5074038;28;20052;-45
2022/06/28 05:26:10;;;;;;;11.40;7.03;;;15.10;99.90;;;;;;5071401;28;20046;-46
2022/06/28 05:28:36;;;;;;;13.15;6.00;;;14.60;99.90;;;;;;5074605;28;20421;-47
2022/06/28 05:31:02;;;;;;;8.45;5.32;;;14.00;99.90;;;;;;5073642;28;20763;-43
2022/06/28 05:33:30;;;;;;;10.98;6.18;;;13.90;99.90;;;;;;5071754;28;20067;-46
2022/06/28 05:35:56;;;;;;;10.10;5.75;;;14.10;99.90;;;;;;5073755;28;20167;-45
2022/06/28 05:38:21;;;;;;;13.95;6.22;;;15.20;99.90;;;;;;5073338;28;20329;-47
2022/06/28 05:40:49;;;;;;;11.93;5.57;;;16.50;99.90;;;;;;5070675;28;20413;-47
2022/06/28 05:43:15;;;;;;;13.32;6.10;;;14.50;99.90;;;;;;5071789;28;20043;-47
2022/06/28 05:45:40;;;;;;;9.93;4.97;;;15.40;99.90;;;;;;5072566;28;20052;-47
2022/06/28 05:48:06;;;;;;;9.07;5.22;;;14.80;99.90;;;;;;5073875;28;20056;-47
2022/06/28 05:50:32;;;;;;;11.07;5.38;;;14.70;99.90;;;;;;5071836;28;20028;-48
2022/06/28 05:52:58;;;;;;;9.82;5.00;;;14.90;99.90;;;;;;5072865;28;20615;-48
2022/06/28 05:55:23;;;;;;;10.68;4.78;;;15.00;99.90;;;;;;5073210;28;20043;-45
2022/06/28 05:57:50;;;;;;;9.50;5.22;;;15.20;99.90;;;;;;5071403;28;20052;-47
2022/06/28 06:00:16;;;;;;;9.52;5.43;;;15.30;99.90;;;;;;5071326;28;20409;-47
2022/06/28 06:02:41;;;;;;;15.27;5.72;;;15.40;99.90;;;;;;5073238;28;20040;-47
2022/06/28 06:05:08;;;;;;;11.05;4.88;;;15.40;99.90;;;;;;5073224;28;20588;-45
2022/06/28 06:07:33;;;;;;;12.13;4.75;;;15.40;99.90;;;;;;5070995;28;20515;-47
2022/06/28 06:10:01;;;;;;;10.57;4.55;;;15.60;99.90;;;;;;5071753;28;20036;-48
2022/06/28 06:12:27;;;;;;;10.45;4.15;;;15.90;99.90;;;;;;5072149;28;20048;-47
2022/06/28 06:14:53;;;;;;;7.80;4.00;;;14.30;99.90;;;;;;5071391;28;20113;-47
2022/06/28 06:17:22;;;;;;;11.70;4.10;;;15.80;99.90;;;;;;5072980;28;20135;-47
2022/06/28 06:19:48;;;;;;;10.07;3.78;;;16.20;99.90;;;;;;5071162;28;20110;-48
2022/06/28 06:22:13;;;;;;;11.48;4.07;;;17.20;99.90;;;;;;5073542;28;20556;-49
2022/06/28 06:24:41;;;;;;;8.05;3.13;;;17.90;99.90;;;;;;5071282;28;20040;-48
2022/06/28 06:27:06;;;;;;;11.45;3.72;;;18.40;99.90;;;;;;5071888;28;20641;-45
2022/06/28 06:29:32;;;;;;;10.32;4.32;;;18.40;99.90;;;;;;5071347;28;20048;-47
2022/06/28 06:31:58;;;;;;;9.98;3.40;;;18.10;99.90;;;;;;5072431;28;20032;-48
2022/06/28 06:34:24;;;;;;;10.70;4.07;;;17.90;99.90;;;;;;5072008;28;20468;-44
2022/06/28 06:36:50;;;;;;;10.05;3.33;;;18.20;99.90;;;;;;5071960;28;20403;-47
2022/06/28 06:39:17;;;;;;;9.98;3.47;;;18.20;99.90;;;;;;5073076;28;20032;-47
2022/06/28 06:41:44;;;;;;;12.30;3.47;;;18.30;99.90;;;;;;5072940;28;20185;-47
2022/06/28 06:44:10;;;;;;;24.55;4.18;;;18.90;99.90;;;;;;5071651;28;20039;-49
2022/06/28 06:46:36;;;;;;;11.40;3.33;;;18.20;99.90;;;;;;5073308;28;21748;-45
2022/06/28 06:49:02;;;;;;;11.10;3.25;;;16.20;99.90;;;;;;5075045;28;20036;-49
2022/06/28 06:51:30;;;;;;;12.80;3.10;;;19.90;99.90;;;;;;5072229;28;20032;-45
2022/06/28 06:53:56;;;;;;;13.25;3.22;;;18.20;99.90;;;;;;5073280;28;20146;-49
2022/06/28 06:56:22;;;;;;;15.05;2.92;;;18.60;99.90;;;;;;5073070;28;20047;-47
2022/06/28 06:58:48;;;;;;;10.43;2.80;;;18.70;99.90;;;;;;5074137;28;20044;-49
2022/06/28 07:01:16;;;;;;;10.13;2.10;;;19.50;99.90;;;;;;5072795;28;20070;-46
2022/06/28 07:03:44;;;;;;;12.27;2.72;;;19.30;99.90;;;;;;5071198;28;20067;-49
2022/06/28 07:06:13;;;;;;;14.75;3.17;;;19.20;99.90;;;;;;5069897;28;20051;-47
2022/06/28 07:08:40;;;;;;;11.63;2.33;;;20.70;99.90;;;;;;5070249;28;21267;-50
2022/06/28 07:11:06;;;;;;;7.78;1.80;;;19.10;99.90;;;;;;5071647;28;20082;-48
2022/06/28 07:13:32;;;;;;;9.95;2.08;;;19.10;99.90;;;;;;5070894;28;20144;-47
2022/06/28 07:16:01;;;;;;;14.48;2.28;;;19.10;99.90;;;;;;5071737;28;20040;-48
2022/06/28 07:18:27;;;;;;;11.52;2.78;;;19.20;99.90;;;;;;5072347;28;20048;-46
2022/06/28 07:20:54;;;;;;;15.05;2.30;;;19.70;99.90;;;;;;5071726;28;20066;-45
2022/06/28 07:23:22;;;;;;;11.07;2.17;;;19.50;99.90;;;;;;5071150;28;20079;-45
2022/06/28 07:25:48;;;;;;;10.10;2.20;;;20.20;99.90;;;;;;5071508;28;20679;-47
2022/06/28 07:28:13;;;;;;;11.65;2.38;;;19.00;99.90;;;;;;5071279;28;20101;-47
2022/06/28 07:30:39;;;;;;;11.23;2.15;;;18.90;99.90;;;;;;5070597;28;20412;-50
2022/06/28 07:33:05;;;;;;;9.02;2.13;;;19.20;99.90;;;;;;5071594;28;20404;-46
2022/06/28 07:35:31;;;;;;;10.98;2.30;;;20.50;99.90;;;;;;5069757;28;20032;-47
2022/06/28 07:37:59;;;;;;;13.05;2.50;;;22.00;99.90;;;;;;5071457;28;20074;-48
2022/06/28 07:40:25;;;;;;;10.55;1.70;;;23.40;99.90;;;;;;5070817;28;20127;-45
2022/06/28 07:42:51;;;;;;;9.60;2.00;;;24.20;99.90;;;;;;5070473;28;20046;-48
2022/06/28 07:45:16;;;;;;;9.45;2.05;;;24.80;99.90;;;;;;5070289;28;20052;-45
2022/06/28 07:47:47;;;;;;;14.00;2.17;;;25.30;99.90;;;;;;5073337;28;20398;-48
2022/06/28 07:53:05;;;;;;;10.48;1.70;;;26.60;99.90;;;;;;5076446;28;20152;-51
2022/06/28 07:55:32;;;;;;;11.13;1.95;;;26.80;99.90;;;;;;5076068;28;20054;-48
2022/06/28 07:57:59;;;;;;;7.43;1.60;;;27.00;99.90;;;;;;5075473;28;20040;-50
2022/06/28 08:00:25;;;;;;;7.03;1.55;;;27.10;99.90;;;;;;5076193;28;20032;-50
2022/06/28 08:02:51;;;;;;;5.57;1.25;;;27.70;99.90;;;;;;5076029;28;20411;-50
2022/06/28 08:05:17;;;;;;;9.20;1.67;;;27.80;99.90;;;;;;5076138;28;20872;-50
2022/06/28 08:07:44;;;;;;;6.95;1.38;;;27.40;99.90;;;;;;5075818;28;20040;-50
2022/06/28 08:10:10;;;;;;;6.35;1.55;;;25.60;99.90;;;;;;5076278;28;20044;-51
2022/06/28 08:12:37;;;;;;;7.30;1.23;;;28.50;99.90;;;;;;5075085;28;20362;-49
2022/06/28 08:15:04;;;;;;;5.85;1.20;;;27.70;99.90;;;;;;5075669;28;20079;-49
2022/06/28 08:17:30;;;;;;;6.85;1.48;;;27.70;99.90;;;;;;5073826;28;20860;-46
2022/06/28 08:19:55;;;;;;;7.82;2.05;;;26.70;99.20;;;;;;5075754;28;20051;-48
2022/06/28 08:22:23;;;;;;;6.32;1.17;;;26.70;99.80;;;;;;5073519;28;20039;-46
2022/06/28 08:24:49;;;;;;;4.65;1.10;;;27.20;97.30;;;;;;5073343;28;20075;-47
2022/06/28 08:27:15;;;;;;;4.15;0.90;;;27.40;97.70;;;;;;5075072;28;20123;-46
2022/06/28 08:29:43;;;;;;;6.72;1.50;;;27.80;96.40;;;;;;5073947;28;20079;-53
2022/06/28 08:32:10;;;;;;;8.35;1.73;;;27.80;95.50;;;;;;5075268;28;20032;-50
2022/06/28 08:34:37;;;;;;;5.53;1.40;;;27.70;97.10;;;;;;5072447;28;20039;-51
2022/06/28 08:37:04;;;;;;;4.75;0.90;;;28.00;97.10;;;;;;5074602;28;20082;-50
2022/06/28 08:39:30;;;;;;;6.20;1.45;;;28.40;96.60;;;;;;5075118;28;20052;-52
2022/06/28 08:42:01;;;;;;;8.25;1.45;;;27.70;96.10;;;;;;5074182;28;20384;-52
2022/06/28 08:44:29;;;;;;;8.00;1.50;;;26.80;97.80;;;;;;5073727;28;20040;-51
2022/06/28 08:46:55;;;;;;;7.35;1.15;;;26.60;99.90;;;;;;5074889;28;20063;-49
2022/06/28 08:49:25;;;;;;;8.25;1.40;;;26.70;99.10;;;;;;5074748;28;20039;-51
2022/06/28 08:51:54;;;;;;;8.63;1.50;;;26.30;99.90;;;;;;5074919;28;20044;-52
2022/06/28 08:54:21;;;;;;;8.63;2.00;;;25.60;99.90;;;;;;5074548;28;20040;-51
2022/06/28 08:56:47;;;;;;;7.50;1.73;;;24.80;99.80;;;;;;5074934;28;20299;-49
2022/06/28 08:59:15;;;;;;;10.07;1.73;;;23.90;99.90;;;;;;5072144;28;20047;-49
2022/06/28 09:01:41;;;;;;;7.32;1.60;;;22.80;99.90;;;;;;5074827;28;20048;-48
2022/06/28 09:04:09;;;;;;;10.18;1.73;;;22.30;99.90;;;;;;5073755;28;20617;-48
2022/06/28 09:06:37;;;;;;;11.98;1.88;;;21.70;99.90;;;;;;5075399;28;20048;-49
2022/06/28 09:09:03;;;;;;;9.82;1.90;;;21.30;99.90;;;;;;5074204;28;20524;-51
2022/06/28 09:11:44;;;;;;;9.45;2.00;;;21.70;99.90;;;;;;5074923;28;20040;-51
2022/06/28 09:14:30;;;;;;;7.75;1.50;;;22.10;99.90;;;;;;5074212;28;20119;-51
2022/06/28 09:16:58;;;;;;;9.68;1.60;;;23.00;99.90;;;;;;5074609;28;20040;-51
2022/06/28 09:19:37;;;;;;;6.20;1.45;;;23.50;99.90;;;;;;5076200;28;20177;-51
2022/06/28 09:22:04;;;;;;;11.68;1.67;;;24.00;99.90;;;;;;5074450;28;20128;-52
2022/06/28 09:24:31;;;;;;;8.43;1.77;;;24.20;99.90;;;;;;5073996;28;20048;-52
2022/06/28 09:27:05;;;;;;;9.57;1.85;;;24.10;99.90;;;;;;5074206;28;20044;-51
2022/06/28 09:29:46;;;;;;;8.68;2.28;;;23.90;99.90;;;;;;5071891;28;20039;-47
2022/06/28 09:32:15;;;;;;;6.80;1.55;;;23.80;99.90;;;;;;5073058;28;20082;-49
2022/06/28 09:34:54;;;;;;;10.07;2.00;;;23.40;99.90;;;;;;5073589;28;20080;-47
2022/06/28 09:37:53;;;;;;;7.65;1.65;;;23.60;99.90;;;;;;5073374;28;20532;-52
2022/06/28 09:40:19;;;;;;;8.60;1.65;;;23.50;99.90;;;;;;4976132;28;20116;-51
2022/06/28 09:43:03;;;;;;;8.20;1.55;;;23.60;99.90;;;;;;4973136;28;20519;-51
2022/06/28 09:45:29;;;;;;;5.75;1.40;;;23.90;99.90;;;;;;4976054;28;20136;-48
2022/06/28 09:47:55;;;;;;;6.90;1.65;;;23.90;99.90;;;;;;4975385;28;20049;-51
2022/06/28 09:50:23;;;;;;;7.50;1.63;;;24.00;99.90;;;;;;4976037;28;20056;-50
2022/06/28 09:52:50;;;;;;;7.28;1.60;;;23.70;99.90;;;;;;4974556;28;20154;-50
2022/06/28 09:55:16;;;;;;;9.63;1.88;;;23.40;99.90;;;;;;4974913;28;20115;-45
2022/06/28 09:57:45;;;;;;;9.23;1.75;;;23.50;99.90;;;;;;4976834;28;21581;-46
2022/06/28 10:00:13;;;;;;;6.20;1.35;;;25.50;99.90;;;;;;4975193;28;20042;-50
2022/06/28 10:02:41;;;;;;;8.90;2.15;;;23.50;99.90;;;;;;4975998;28;20432;-46
2022/06/28 10:05:07;;;;;;;10.30;1.90;;;23.90;99.90;;;;;;4974326;28;20035;-48
2022/06/28 10:07:34;;;;;;;8.38;1.48;;;23.70;99.90;;;;;;4977722;28;20042;-49
2022/06/28 10:10:01;;;;;;;9.55;1.65;;;24.00;99.90;;;;;;4975095;28;20073;-46
2022/06/28 10:15:17;;;;;;;5.30;1.30;;;24.10;99.90;;;;;;4996408;28;20048;-50
2022/06/28 10:18:08;;;;;;;10.80;2.17;;;24.20;99.90;;;;;;5073928;28;20040;-45
2022/06/28 10:20:37;;;;;;;7.63;1.80;;;23.60;99.90;;;;;;5072273;28;20123;-45
2022/06/28 10:23:37;;;;;;;7.28;1.60;;;23.10;99.90;;;;;;5072504;28;20662;-49
2022/06/28 10:26:20;;;;;;;6.85;1.30;;;22.40;99.90;;;;;;5072926;28;20036;-46
2022/06/28 10:29:01;;;;;;;10.07;1.95;;;22.30;99.90;;;;;;5071677;28;20605;-48
2022/06/28 10:31:29;;;;;;;7.10;1.60;;;21.60;99.90;;;;;;5069707;28;20207;-47
2022/06/28 10:34:00;;;;;;;8.90;2.08;;;21.20;99.90;;;;;;5071663;28;20071;-46
2022/06/28 10:36:33;;;;;;;9.43;1.75;;;22.80;99.90;;;;;;5072014;28;20125;-47
2022/06/28 10:39:08;;;;;;;7.10;1.63;;;21.50;99.90;;;;;;5072822;28;20423;-48
2022/06/28 10:41:43;;;;;;;7.82;1.23;;;21.90;99.90;;;;;;5070861;28;20073;-47
2022/06/28 10:44:23;;;;;;;6.57;1.20;;;22.20;99.90;;;;;;5070356;28;20440;-46
2022/06/28 10:47:05;;;;;;;4.95;1.38;;;22.00;99.90;;;;;;5070067;28;20542;-52
2022/06/28 10:49:45;;;;;;;10.05;2.22;;;22.40;99.90;;;;;;5072438;28;20044;-47
2022/06/28 10:52:32;;;;;;;8.63;1.38;;;23.10;99.90;;;;;;5071218;28;20044;-44
2022/06/28 10:54:58;;;;;;;10.10;1.50;;;23.30;99.90;;;;;;5071623;28;20654;-49
2022/06/28 10:57:40;;;;;;;8.02;1.42;;;23.40;99.90;;;;;;5071375;28;20139;-46
2022/06/28 11:00:22;;;;;;;9.32;1.50;;;23.50;99.90;;;;;;5071004;28;20100;-49
2022/06/28 11:02:51;;;;;;;9.60;1.75;;;23.90;99.90;;;;;;5071254;28;20055;-47
2022/06/28 11:05:23;;;;;;;9.32;1.65;;;23.80;99.90;;;;;;5071788;28;20036;-48
2022/06/28 11:08:00;;;;;;;7.97;1.98;;;24.40;99.90;;;;;;5070918;28;20077;-47
2022/06/28 11:10:27;;;;;;;11.70;1.65;;;24.10;99.90;;;;;;5071358;28;20047;-47
2022/06/28 11:12:53;;;;;;;9.35;1.60;;;24.30;99.90;;;;;;5071023;28;20039;-47
2022/06/28 11:15:27;;;;;;;7.45;1.58;;;24.20;99.90;;;;;;5071251;28;20116;-47
2022/06/28 11:17:53;;;;;;;8.27;1.70;;;24.30;99.90;;;;;;5070435;28;20063;-47
2022/06/28 11:20:27;;;;;;;9.70;1.70;;;24.40;99.90;;;;;;5071305;28;20048;-45
2022/06/28 11:22:54;;;;;;;6.15;1.45;;;24.70;99.90;;;;;;5073634;28;20035;-47
2022/06/28 11:25:25;;;;;;;4.85;1.15;;;24.80;99.90;;;;;;5074348;28;20040;-46
2022/06/28 11:27:55;;;;;;;5.75;1.27;;;24.60;99.90;;;;;;5074992;28;20142;-44
2022/06/28 11:30:27;;;;;;;6.40;1.35;;;24.20;99.90;;;;;;5075748;28;20044;-45
2022/06/28 11:32:57;;;;;;;6.97;1.48;;;24.50;99.90;;;;;;5077067;28;20047;-45
2022/06/28 11:35:27;;;;;;;10.13;1.60;;;23.60;99.90;;;;;;5075435;28;20450;-45
2022/06/28 11:38:02;;;;;;;7.55;1.40;;;23.70;99.90;;;;;;5075428;28;20073;-46
2022/06/28 11:40:29;;;;;;;7.35;1.30;;;23.40;99.90;;;;;;5075565;28;20513;-45
2022/06/28 11:43:08;;;;;;;11.15;1.60;;;23.70;99.90;;;;;;5077204;28;20043;-45
2022/06/28 11:45:36;;;;;;;7.45;1.60;;;23.10;99.90;;;;;;5075726;28;20047;-46
2022/06/28 11:48:04;;;;;;;11.02;1.40;;;22.80;99.90;;;;;;5076612;28;20058;-46
2022/06/28 11:50:45;;;;;;;6.18;1.35;;;22.40;99.90;;;;;;5076378;28;20051;-47
2022/06/28 11:53:13;;;;;;;7.50;1.90;;;22.30;99.90;;;;;;5075320;28;20040;-45
2022/06/28 11:55:46;;;;;;;5.95;1.30;;;22.50;99.90;;;;;;5076325;28;20044;-47
2022/06/28 11:58:27;;;;;;;9.23;1.63;;;23.10;99.90;;;;;;5077176;28;20044;-43
2022/06/28 12:01:08;;;;;;;6.10;1.35;;;23.30;99.90;;;;;;5075713;28;20136;-46
2022/06/28 12:03:55;;;;;;;7.63;1.42;;;23.70;99.90;;;;;;5074644;28;20696;-46
2022/06/28 12:06:22;;;;;;;10.27;1.50;;;24.00;99.90;;;;;;5075853;28;20065;-44
2022/06/28 12:09:00;;;;;;;7.10;1.33;;;24.30;99.90;;;;;;5074956;28;20730;-44
2022/06/28 12:11:31;;;;;;;11.45;1.70;;;24.50;99.90;;;;;;5074890;28;20120;-44
2022/06/28 12:13:58;;;;;;;7.95;1.60;;;24.50;99.90;;;;;;5074026;28;20040;-46
2022/06/28 12:16:42;;;;;;;7.22;1.30;;;24.80;99.90;;;;;;5073074;28;20133;-45
2022/06/28 12:19:12;;;;;;;7.15;1.60;;;24.60;99.90;;;;;;5075760;28;20039;-47
2022/06/28 12:21:39;;;;;;;7.77;1.97;;;24.70;99.90;;;;;;5072968;28;20132;-45
2022/06/28 12:24:06;;;;;;;8.57;1.52;;;24.80;99.90;;;;;;5075197;28;20885;-46
2022/06/28 12:26:41;;;;;;;5.10;1.13;;;24.80;99.90;;;;;;5074009;28;20129;-47
2022/06/28 12:29:07;;;;;;;11.32;1.48;;;25.00;99.90;;;;;;5074259;28;20037;-45
2022/06/28 12:31:35;;;;;;;8.68;1.83;;;25.10;99.90;;;;;;5071829;28;20408;-48
2022/06/28 12:34:13;;;;;;;7.07;1.27;;;25.10;99.90;;;;;;5074141;28;20063;-49
2022/06/28 12:36:41;;;;;;;5.28;1.40;;;25.30;99.90;;;;;;5073771;28;20401;-47
2022/06/28 12:39:06;;;;;;;8.65;1.30;;;24.90;99.90;;;;;;5074727;28;20050;-45
2022/06/28 12:41:32;;;;;;;6.25;1.27;;;24.80;99.90;;;;;;5072801;28;20040;-44
2022/06/28 12:43:58;;;;;;;5.88;1.45;;;24.30;99.90;;;;;;5075275;28;20036;-45
2022/06/28 12:46:24;;;;;;;9.20;1.75;;;24.50;99.90;;;;;;5074035;28;20036;-44
2022/06/28 12:48:49;;;;;;;6.07;1.27;;;24.70;99.90;;;;;;5073818;28;20524;-46
2022/06/28 12:51:16;;;;;;;5.28;1.10;;;24.50;99.90;;;;;;5074553;28;20052;-47
2022/06/28 12:53:42;;;;;;;5.93;1.30;;;24.70;99.90;;;;;;5075366;28;20048;-46
2022/06/28 12:56:08;;;;;;;4.22;1.02;;;26.90;99.90;;;;;;5074053;28;20412;-44